»·PEaware :: N326MC KDAL-KDEN

N326MC :: KDAL-KDEN

FLIGHT INFORMATION

Flight Status: Arrived
Operator: Privately registered:
United States
More flights under this callsign
Pilot: Anonymous 5456 (5456)
Aircraft: BOEING 767-300
(B763)
More flights by this aircraft type
Origin: KDAL Dallas Love
United States
Destination: KDEN Denver Intl
United States
More flights between these airports :: More routes between these airports
Route: +ESNYE4 ROLLS DRAWL HALEN ZPLYN3
File this flight plan on PilotEdge
Remarks:
Altitude:
(Current/Filed)
36,000ft
Speed:
(Current/Filed)
450kts
Departed: 16-Nov-18 12:07 PM
Arrived: 16-Nov-18 01:56 PM
Distance/Time
Traveled:
564nm/1:49
Distance/Time
To Go:
Arrived

Flight Plot

Page will automatically refresh every two minutes.

Flight plan parsing failed; only flown route is shown


Map Options




Map Legend


Flown Route
Filed Route
Departure Airport
Arrival Airport
Navaid (VOR, NDB)
Fix

Horizontal Profiles

Position Reports

Time Latitude Longitude Heading Altitude Ground
Speed
16-Nov-18 11:50 32.851638 -96.847100 360 498ft 0kts
16-Nov-18 11:51 32.851638 -96.847100 360 497ft 0kts
16-Nov-18 11:52 32.851638 -96.847100 360 497ft 0kts
16-Nov-18 11:53 32.851638 -96.847100 360 497ft 0kts
16-Nov-18 11:54 32.851638 -96.847100 360 497ft 0kts
16-Nov-18 11:55 32.851638 -96.847100 360 497ft 0kts
16-Nov-18 11:56 32.851638 -96.847100 360 497ft 0kts
16-Nov-18 11:57 32.851638 -96.847100 360 497ft 0kts
16-Nov-18 11:58 32.851638 -96.847100 360 497ft 0kts
16-Nov-18 11:59 32.851638 -96.847100 360 497ft 0kts
16-Nov-18 12:00 32.851450 -96.847053 329 497ft 2kts
16-Nov-18 12:01 32.851232 -96.846824 317 497ft 0kts
16-Nov-18 12:02 32.851232 -96.846824 317 497ft 0kts
16-Nov-18 12:03 32.851232 -96.846824 317 497ft 0kts
16-Nov-18 12:04 32.851232 -96.846824 317 497ft 0kts
16-Nov-18 12:05 32.851528 -96.847211 292 497ft 6kts
16-Nov-18 12:06 32.852003 -96.848869 317 497ft 18kts
16-Nov-18 12:07 32.855414 -96.852719 314 497ft 21kts
16-Nov-18 12:08 32.857644 -96.856115 244 497ft 10kts
16-Nov-18 12:09 32.856665 -96.856141 133 497ft 0kts
16-Nov-18 12:10 32.840133 -96.836477 133 1092ft 148kts
16-Nov-18 12:11 32.804585 -96.794431 136 2429ft 239kts
16-Nov-18 12:12 32.792661 -96.723199 52 5061ft 267kts
16-Nov-18 12:13 32.849574 -96.678152 352 7690ft 273kts
16-Nov-18 12:14 32.908776 -96.736586 326 10527ft 326kts
16-Nov-18 12:15 32.988966 -96.784793 335 13736ft 365kts
16-Nov-18 12:16 33.078781 -96.830131 335 17424ft 380kts
16-Nov-18 12:17 33.169007 -96.884836 323 20803ft 391kts
16-Nov-18 12:18 33.271512 -96.924151 354 23784ft 418kts
16-Nov-18 12:19 33.386995 -96.946207 345 26511ft 431kts
16-Nov-18 12:20 33.505465 -96.977189 344 29012ft 446kts
16-Nov-18 12:21 33.627388 -97.009882 343 31645ft 452kts
16-Nov-18 12:22 33.747858 -97.042338 343 34445ft 441kts
16-Nov-18 12:23 33.866449 -97.074420 343 36139ft 444kts
16-Nov-18 12:24 33.985316 -97.106630 343 36132ft 438kts
16-Nov-18 12:25 34.103373 -97.138726 343 36125ft 436kts
16-Nov-18 12:26 34.213319 -97.186140 321 36132ft 424kts
16-Nov-18 12:27 34.292533 -97.289084 309 36124ft 420kts
16-Nov-18 12:28 34.366437 -97.397505 308 36110ft 420kts
16-Nov-18 12:29 34.440258 -97.507154 308 36099ft 420kts
16-Nov-18 12:30 34.513683 -97.616655 308 36102ft 420kts
16-Nov-18 12:31 34.586099 -97.724996 307 36111ft 420kts
16-Nov-18 12:32 34.659331 -97.834898 307 36110ft 420kts
16-Nov-18 12:33 34.732787 -97.945477 307 36107ft 420kts
16-Nov-18 12:34 34.805940 -98.055950 308 36088ft 420kts
16-Nov-18 12:35 34.891137 -98.185038 307 36070ft 420kts
16-Nov-18 12:36 34.952087 -98.277672 307 36080ft 422kts
16-Nov-18 12:37 35.025422 -98.389461 307 36093ft 425kts
16-Nov-18 12:38 35.098980 -98.501952 307 36097ft 425kts
16-Nov-18 12:39 35.170909 -98.612288 307 36099ft 425kts
16-Nov-18 12:40 35.242026 -98.721737 307 36106ft 425kts
16-Nov-18 12:41 35.315177 -98.834669 307 36113ft 425kts
16-Nov-18 12:42 35.388386 -98.948055 307 36119ft 422kts
16-Nov-18 12:43 35.460437 -99.060009 306 36118ft 418kts
16-Nov-18 12:44 35.531636 -99.171007 306 36112ft 415kts
16-Nov-18 12:45 35.602918 -99.282487 306 36093ft 416kts
16-Nov-18 12:46 35.673882 -99.393826 306 36078ft 416kts
16-Nov-18 12:47 35.749089 -99.501352 314 36079ft 417kts
16-Nov-18 12:48 35.762415 -99.517181 314 36076ft 417kts
16-Nov-18 12:49 35.762415 -99.517181 314 36076ft 417kts
16-Nov-18 12:50 35.762415 -99.517181 314 36076ft 417kts
16-Nov-18 12:51 35.762415 -99.517181 314 36076ft 417kts
16-Nov-18 12:52 35.762415 -99.517181 314 36076ft 417kts
16-Nov-18 12:53 35.762415 -99.517181 314 36076ft 417kts
16-Nov-18 12:54 35.762415 -99.517181 314 36076ft 417kts
16-Nov-18 12:55 35.762415 -99.517181 314 36076ft 417kts
16-Nov-18 12:56 35.799724 -99.561395 314 36076ft 417kts
16-Nov-18 12:57 35.882288 -99.659145 313 36085ft 417kts
16-Nov-18 12:58 35.964999 -99.757279 313 36098ft 417kts
16-Nov-18 12:59 36.048269 -99.856380 313 36099ft 417kts
16-Nov-18 13:00 36.129672 -99.953559 313 36100ft 417kts
16-Nov-18 13:01 36.212696 -100.052977 313 36101ft 417kts
16-Nov-18 13:02 36.295821 -100.152825 313 36093ft 417kts
16-Nov-18 13:03 36.378744 -100.252743 313 36077ft 417kts
16-Nov-18 13:04 36.461881 -100.353234 313 36055ft 417kts
16-Nov-18 13:05 36.544454 -100.453360 313 36050ft 417kts
16-Nov-18 13:06 36.627326 -100.554165 313 36049ft 417kts
16-Nov-18 13:07 36.709562 -100.654517 313 36052ft 417kts
16-Nov-18 13:08 36.791791 -100.755170 313 36067ft 417kts
16-Nov-18 13:09 36.874104 -100.856247 313 36072ft 415kts
16-Nov-18 13:10 36.955897 -100.957010 313 36071ft 413kts
16-Nov-18 13:11 37.037570 -101.057953 312 36069ft 416kts
16-Nov-18 13:12 37.119165 -101.159126 312 36057ft 422kts
16-Nov-18 13:13 37.202528 -101.262815 312 36040ft 422kts
16-Nov-18 13:14 37.284037 -101.364501 311 36006ft 412kts
16-Nov-18 13:15 37.365338 -101.466317 311 35991ft 413kts
16-Nov-18 13:16 37.444476 -101.565717 311 35976ft 413kts
16-Nov-18 13:17 37.520928 -101.669636 306 35985ft 410kts
16-Nov-18 13:18 37.594513 -101.779001 306 35984ft 409kts
16-Nov-18 13:19 37.667628 -101.887877 306 35988ft 410kts
16-Nov-18 13:20 37.740933 -101.997385 306 35984ft 410kts
16-Nov-18 13:21 37.813958 -102.106842 306 35976ft 410kts
16-Nov-18 13:22 37.890620 -102.213080 309 35971ft 411kts
16-Nov-18 13:23 37.965845 -102.314994 309 35968ft 411kts
16-Nov-18 13:24 38.043437 -102.420506 309 35966ft 411kts
16-Nov-18 13:25 38.119486 -102.524258 309 35967ft 411kts
16-Nov-18 13:26 38.196846 -102.630148 309 35966ft 411kts
16-Nov-18 13:27 38.269564 -102.730022 308 35976ft 410kts
16-Nov-18 13:28 38.346935 -102.836631 308 35975ft 411kts
16-Nov-18 13:29 38.423740 -102.942792 308 35965ft 401kts
16-Nov-18 13:30 38.496363 -103.043567 308 35989ft 397kts
16-Nov-18 13:31 38.570707 -103.147018 308 35081ft 386kts
16-Nov-18 13:32 38.642482 -103.247343 308 33320ft 386kts
16-Nov-18 13:33 38.715081 -103.349115 308 31735ft 392kts
16-Nov-18 13:34 38.789130 -103.453000 309 29908ft 400kts
16-Nov-18 13:35 38.862637 -103.556660 309 28336ft 390kts
16-Nov-18 13:36 38.934333 -103.658264 309 26780ft 383kts
16-Nov-18 13:37 39.003859 -103.757096 309 25321ft 376kts
16-Nov-18 13:38 39.073126 -103.855875 309 23844ft 369kts
16-Nov-18 13:39 39.139898 -103.951368 310 22475ft 362kts
16-Nov-18 13:40 39.206539 -104.046910 310 21206ft 356kts
16-Nov-18 13:41 39.272609 -104.133827 324 20585ft 320kts
16-Nov-18 13:42 39.352345 -104.199091 326 19862ft 352kts
16-Nov-18 13:43 39.437284 -104.261566 327 19848ft 340kts
16-Nov-18 13:44 39.520920 -104.323085 327 17525ft 364kts
16-Nov-18 13:45 39.603926 -104.385069 327 16137ft 338kts
16-Nov-18 13:46 39.675022 -104.447228 309 15679ft 290kts
16-Nov-18 13:47 39.736706 -104.512489 328 14315ft 288kts
16-Nov-18 13:48 39.816094 -104.522635 357 12975ft 291kts
16-Nov-18 13:49 39.894271 -104.521722 359 12087ft 273kts
16-Nov-18 13:50 39.964723 -104.507861 10 11499ft 258kts
16-Nov-18 13:51 40.035737 -104.491119 358 9978ft 250kts
16-Nov-18 13:52 40.063904 -104.546258 255 8638ft 219kts
16-Nov-18 13:53 40.051223 -104.606510 256 7714ft 191kts
16-Nov-18 13:54 40.038882 -104.667974 252 7021ft 176kts
16-Nov-18 13:55 39.987654 -104.668120 160 6633ft 192kts
16-Nov-18 13:56 39.946103 -104.655159 181 6793ft 170kts
16-Nov-18 13:57 39.897900 -104.658451 188 5826ft 142kts
16-Nov-18 13:58 39.858835 -104.659998 183 5446ft 129kts
16-Nov-18 13:59 39.843019 -104.660348 187 5445ft 11kts

Navigation Log

Ident Type
Flight plan parsing failed, navigation log unavailable